航空気象通報

ウインドサーファーのための航空気象通報による風予報です。

4/30-5/1の航空気象通報(国内、海外)

2007年04月30日 20時03分38秒 | TAF
羽田空港
TAF RJTT 300841Z 301812 19008KT 8000 FEW015 SCT030
BECMG 0003 19018KT
BECMG 0912 13015KT
日本時間1日03-09時:190度から8ノットの風
09-12時:風が変化
12-18時:190度から18ノットの風
18-21時:風が変化
21時:130度から15ノットの風


那覇空港
ROAH 300849Z 301812 19016KT 9999 FEW008 BKN015
TEMPO 1821 4000 SHRA
BECMG 2124 36014KT
TEMPO 2124 3000 +SHRA FEW006 BKN008 BKN015 SCT020CB
TEMPO 0003 1500 +SHRA FEW006 BKN008 BKN015 SCT020CB
TEMPO 0306 4000 SHRA
日本時間1日03-06時:190度から16ノットの風
06-09時:風が変化
09-21時:360度から14ノットの風
ときどき

マウイのカフルイ空港
PHOG 301128Z 301212 04012KT P6SM SCT025 BKN060
FM2000 04018G25KT P6SM FEW030 SCT060
FM0500 04010KT P6SM FEW035 SCT060
ハワイ時間30日02-10時:040度から12ノットの風

10-19時:040度から18ノット、突風25ノット
19時-1日02時:040度から10ノットの風


サイパン空港
PGSN 301120Z 301212 06010G20KT P6SM VCSH SCT022
マリアナ時間30日22時-1日22時:060度から10ノット、突風20ノット


グアム空港
TAFPQ TAF PGUM 301120Z 301212 06011KT P6SM VCSH SCT020
マリアナ時間30日22時-1日22時:060度から11ノットの風

コメント

4/29-30の航空気象通報(国内、海外)

2007年04月29日 20時58分25秒 | TAF
羽田空港
TAF RJTT 290837Z 291812 36006KT 9999 FEW030
BECMG 0003 11005KT
BECMG 0306 18015KT
日本時間30日03-09時:360度から6ノットの風
09-12時:風が変化
12時:110度から5ノットの風
12-15時:風が変化
15-21時:180度から15ノットの風


那覇空港
ROAH 290841Z 291812 14012KT 9999 FEW020 SCT045
日本時間30日03-21時:140度から12ノットの風


マウイのカフルイ空港
PHOG 291129Z 291212 03007KT P6SM FEW030 SCT060
FM1900 04018G25KT P6SM FEW040
FM0500 04010KT P6SM FEW030 SCT060
ハワイ時間29日02-09時:030度から7ノットの風
09-19時:040度から18ノット、突風25ノット
19時-30日02時:040度から10ノットの風


サイパン空港
PGSN 291122Z 291212 06011KT P6SM VCSH SCT022
TEMPO 1214 -SHRA BKN016 BKN025 OVC100
マリアナ時間29日22時-30日22時:060度から11ノットの風

但し、29日22-24時:一時、

グアム空港
TAFPQ TAF PGUM 291122Z 291212 08011KT P6SM VCSH SCT020
マリアナ時間29日22時-30日22時:080度から11ノットの風

コメント

4/28-29の航空気象通報(国内、海外)

2007年04月28日 19時30分07秒 | TAF
羽田空港
TAF RJTT 280847Z 281812 34006KT 9999 FEW030
BECMG 0003 12006KT
BECMG 0306 18015KT
日本時間29日03-09時:340度から6ノットの風
09-12時:風が変化
12時:120度から6ノットの風
12-15時:風が変化
15-21時:180度から15ノットの風


那覇空港
ROAH 280840Z 281812 07012KT 9999 FEW015 BKN040
BECMG 0912 10010KT
日本時間29日03-18時:070度から12ノットの風
18-21時:風が変化
21時:100度から10ノットの風


マウイのカフルイ空港
PHOG 281121Z 281212 03008KT P6SM VCSH SCT030 BKN070
FM1900 05016KT P6SM SCT035 BKN070
FM2100 04020G27KT P6SM FEW030 SCT040 SCT070
FM0400 04014KT P6SM SCT050
ハワイ時間28日02-09時:030度から8ノットの風
09-11時:050度から16ノットの風

11-18時:040度から20ノット、突風27ノット
20時-29日02時:040度から14ノットの風


サイパン空港
PGSN 281136Z 281212 07017KT P6SM VCSH SCT025
マリアナ時間28日22時-29日22時:070度から17ノットの風


グアム空港
TAFPQ TAF PGUM 281136Z 281212 08015KT P6SM VCSH SCT025
マリアナ時間28日22時-29日22時:080度から15ノットの風

コメント

4/27-28の航空気象通報

2007年04月27日 22時49分07秒 | TAF
羽田空港
TAF RJTT 270851Z 271812 21005KT 9999 FEW030
BECMG 0003 20020KT
TEMPO 0006 20022G32KT
TEMPO 0612 3000 TSRA SCT008 BKN015 FEW020CB
日本時間28日03-09時:210度から5ノットの風
09-12時:風が変化
12-21時:200度から20ノットの風
但し、09-15時:一時、200度から22ノット、突風32ノット

但し、15-21時:一時、

那覇空港
ROAH 270844Z 271812 12012KT 9999 FEW015 SCT025
TEMPO 2103 4000 SHRA FEW008 BKN015 FEW020CB
BECMG 0003 07014KT
日本時間28日03-09時:120度から12ノットの風
09-12時:風が変化
12-21時:070度から14ノットの風

但し、06-12時:一時、

マウイのカフルイ空港
PHOG 271132Z 271212 04010KT P6SM FEW040
FM2000 04018G24KT P6SM SCT040
FM0600 04010KT P6SM FEW040
ハワイ時間27日02-10時:040度から10ノットの風
10-20時:040度から18ノット、突風24ノット
20時-28日02時:040度から10ノットの風


サイパン空港
PGSN 271120Z 271212 07014KT P6SM VCSH SCT020
TEMPO 1214 07014G24KT -SHRA SCT020 BKN025
FM2200 07017KT P6SM VCSH SCT025
マリアナ時間27日22時-28日08時:070度から14ノットの風

但し、27日22-24時:一時、070度から14ノット、突風24ノット、
28日08-22時:070度から17ノットの風


グアム空港
TAFPQ TAF
AMD PGUM 271250Z 271312 07011KT P6SM VCSH SCT020
FM2200 08014KT P6SM VCSH SCT020
マリアナ時間27日23時-28日08時:070度から11ノットの風
08-22時:080度から14ノットの風

コメント

4/26-27の航空気象通報

2007年04月26日 21時28分03秒 | TAF
羽田空港
TAF RJTT 260847Z 261812 36010KT 9999 FEW030
BECMG 0306 19016KT
日本時間27日03-12時:360度から10ノットの風
12-15時:風が変化
15-21時:190度から16ノットの風


那覇空港
ROAH 260840Z 261812 08008KT 9999 FEW035
BECMG 0609 10010KT
日本時間27日03-21時:080度から8ノットの風


マウイのカフルイ空港
PHOG 261133Z 261212 04010KT P6SM SCT060
FM1900 05015G22KT P6SM FEW040 SCT060
FM0600 04010KT P6SM FEW060
ハワイ時間26日02-09時:040度から10ノットの風
09-20時:050度から15ノット、突風22ノット
20時-27日02時:040度から10ノットの風


サイパン空港
PGSN 261129Z 261212 07016KT P6SM VCSH SCT020
マリアナ時間26日22時-27日22時:070度から16ノットの風


グアム空港
TAFPQ TAF PGUM 261129Z 261212 08011KT P6SM VCSH SCT020
FM2200 08015KT P6SM VCSH SCT020
マリアナ時間26日22時-27日08時:080度から11ノットの風
08-22時:080度から15ノットの風

コメント